Time;durP1;ratioP1;P1;durP2;ratioP2;P2;SDS_P1;SDS_P2;PMS_P1;PMS_P2;Temp;Humidity;BMP_temperature;BMP_pressure;BME280_temperature;BME280_humidity;BME280_pressure;Samples;Min_cycle;Max_cycle;Signal;HPM_P1;HPM_P2
2023/01/29 00:01:50;;;;;;;28.07;26.57;;;20.60;43.80;;;;;;5113794;28;20977;-55
2023/01/29 00:04:17;;;;;;;27.70;26.33;;;20.60;43.80;;;;;;5113789;28;20441;-54
2023/01/29 00:06:44;;;;;;;27.30;26.00;;;20.60;43.80;;;;;;5107756;28;20467;-57
2023/01/29 00:09:12;;;;;;;28.33;26.83;;;20.50;43.80;;;;;;5110206;28;20445;-56
2023/01/29 00:11:39;;;;;;;28.83;27.43;;;20.50;43.80;;;;;;5113680;28;21059;-56
2023/01/29 00:14:06;;;;;;;28.23;26.83;;;20.50;43.80;;;;;;5113509;28;20938;-56
2023/01/29 00:16:34;;;;;;;28.77;27.30;;;20.50;43.90;;;;;;5113347;28;21059;-55
2023/01/29 00:19:01;;;;;;;30.13;28.63;;;20.50;43.90;;;;;;5110255;28;20453;-56
2023/01/29 00:21:29;;;;;;;28.83;27.33;;;20.40;43.80;;;;;;5113584;28;20441;-57
2023/01/29 00:23:56;;;;;;;27.83;26.43;;;20.40;43.80;;;;;;5113439;28;20445;-55
2023/01/29 00:26:23;;;;;;;28.90;27.30;;;20.40;43.90;;;;;;5112831;28;20452;-55
2023/01/29 00:28:50;;;;;;;28.90;27.50;;;20.40;43.90;;;;;;5072557;28;20447;-59
2023/01/29 00:31:19;;;;;;;29.37;27.67;;;20.30;43.80;;;;;;5072491;28;20451;-57
2023/01/29 00:33:47;;;;;;;28.50;27.07;;;20.30;43.80;;;;;;5072724;28;20805;-57
2023/01/29 00:36:16;;;;;;;28.83;27.30;;;20.30;43.80;;;;;;5072388;28;20566;-57
2023/01/29 00:38:43;;;;;;;28.43;27.03;;;20.30;43.80;;;;;;5110110;28;20539;-57
2023/01/29 00:46:40;;;;;;;27.57;26.20;;;20.20;43.90;;;;;;5113029;28;20570;-59
2023/01/29 00:49:09;;;;;;;27.87;26.47;;;20.10;43.80;;;;;;5109608;28;20445;-58
2023/01/29 00:51:36;;;;;;;29.27;27.70;;;20.10;43.90;;;;;;5112468;28;20447;-57
2023/01/29 00:54:05;;;;;;;28.50;27.10;;;20.10;44.00;;;;;;5112836;28;20451;-59
2023/01/29 00:56:34;;;;;;;30.07;28.17;;;20.10;44.00;;;;;;5112698;28;20461;-55
2023/01/29 00:59:01;;;;;;;29.03;27.50;;;20.00;44.00;;;;;;5112609;28;20441;-57
2023/01/29 01:04:14;;;;;;;28.67;27.20;;;20.00;44.00;;;;;;5072192;28;20496;-57
2023/01/29 01:06:41;;;;;;;30.93;29.27;;;20.00;44.00;;;;;;5071934;28;21040;-54
2023/01/29 01:11:54;;;;;;;30.27;28.80;;;19.90;43.90;;;;;;5071931;28;20497;-58
2023/01/29 01:14:22;;;;;;;29.90;28.20;;;19.90;44.00;;;;;;5100665;28;20446;-58
2023/01/29 01:16:49;;;;;;;30.27;28.47;;;19.90;44.00;;;;;;5074639;28;20471;-55
2023/01/29 01:19:17;;;;;;;28.90;27.50;;;19.80;44.00;;;;;;5071635;28;20544;-58
2023/01/29 01:21:46;;;;;;;28.87;27.47;;;19.80;44.00;;;;;;5071902;28;20538;-59
2023/01/29 01:24:14;;;;;;;28.50;27.00;;;19.80;44.00;;;;;;5071795;28;20455;-57
2023/01/29 01:26:41;;;;;;;27.87;26.50;;;19.80;44.00;;;;;;5101283;28;20453;-58
2023/01/29 01:29:07;;;;;;;29.10;27.60;;;19.80;44.00;;;;;;5112153;28;20448;-55
2023/01/29 01:31:35;;;;;;;29.43;27.73;;;19.80;44.00;;;;;;5112226;28;20449;-56
2023/01/29 01:34:01;;;;;;;28.90;27.30;;;19.70;44.00;;;;;;5098813;28;20501;-57
2023/01/29 01:36:31;;;;;;;28.87;27.27;;;19.70;44.00;;;;;;5071614;28;21063;-55
2023/01/29 01:38:58;;;;;;;28.13;26.73;;;19.70;44.10;;;;;;5071537;28;20451;-59
2023/01/29 01:41:24;;;;;;;28.13;26.70;;;19.60;44.00;;;;;;5071470;28;20450;-56
2023/01/29 01:43:54;;;;;;;30.03;28.23;;;19.60;44.10;;;;;;5079520;28;20965;-54
2023/01/29 01:46:21;;;;;;;28.73;27.13;;;19.60;44.10;;;;;;5112013;28;20502;-59
2023/01/29 01:48:51;;;;;;;27.93;26.33;;;19.60;44.10;;;;;;5111911;28;20455;-55
2023/01/29 01:51:20;;;;;;;28.43;26.83;;;19.60;44.10;;;;;;5112247;28;20437;-55
2023/01/29 01:53:53;;;;;;;28.80;27.30;;;19.60;44.10;;;;;;5098307;28;20443;-56
2023/01/29 01:56:25;;;;;;;27.77;26.37;;;19.50;44.00;;;;;;5071298;28;20821;-57
2023/01/29 01:58:54;;;;;;;27.97;26.57;;;19.50;44.60;;;;;;5071311;28;20530;-52
2023/01/29 02:01:26;;;;;;;29.00;27.50;;;19.40;44.00;;;;;;5071302;28;20443;-59
2023/01/29 02:09:34;;;;;;;28.53;26.90;;;19.40;44.00;;;;;;5116049;28;20474;-53
2023/01/29 02:12:03;;;;;;;28.43;27.03;;;19.40;44.00;;;;;;5116084;28;20803;-53
2023/01/29 02:14:30;;;;;;;28.77;27.23;;;19.40;43.90;;;;;;5115931;28;20448;-55
2023/01/29 02:16:57;;;;;;;29.80;28.10;;;19.40;43.90;;;;;;5113783;28;20525;-54
2023/01/29 02:19:38;;;;;;;28.20;26.90;;;19.30;43.80;;;;;;5115889;28;20448;-58
2023/01/29 02:22:40;;;;;;;29.40;27.90;;;19.30;43.80;;;;;;5115751;28;20447;-56
2023/01/29 02:25:33;;;;;;;28.40;26.90;;;19.30;43.90;;;;;;5108145;28;20449;-57
2023/01/29 02:28:21;;;;;;;28.37;26.97;;;19.30;43.90;;;;;;5115690;28;20464;-53
2023/01/29 02:30:56;;;;;;;29.53;27.93;;;19.20;43.80;;;;;;5115547;28;20519;-57
2023/01/29 02:33:31;;;;;;;28.73;27.23;;;19.20;43.90;;;;;;5105154;28;20443;-56
2023/01/29 02:36:05;;;;;;;29.10;27.30;;;19.20;43.90;;;;;;5074771;28;20478;-53
2023/01/29 02:38:40;;;;;;;29.00;27.53;;;19.20;43.90;;;;;;5084621;28;20461;-57
2023/01/29 02:41:15;;;;;;;28.20;26.60;;;19.20;43.80;;;;;;5115329;28;20448;-55
2023/01/29 02:43:46;;;;;;;28.47;27.07;;;19.10;43.80;;;;;;5115332;28;20944;-54
2023/01/29 02:46:19;;;;;;;29.10;27.57;;;19.10;43.80;;;;;;5089620;28;20470;-56
2023/01/29 02:48:53;;;;;;;30.00;28.50;;;19.10;43.80;;;;;;5074557;28;20453;-53
2023/01/29 02:51:25;;;;;;;29.50;27.93;;;19.10;43.80;;;;;;5074588;28;20450;-54
2023/01/29 02:53:59;;;;;;;28.90;27.50;;;19.00;43.60;;;;;;5074563;28;20445;-58
2023/01/29 02:56:32;;;;;;;31.30;29.63;;;19.10;43.80;;;;;;5074374;28;21018;-54
2023/01/29 02:59:07;;;;;;;30.40;28.80;;;19.00;43.70;;;;;;5109331;28;20571;-57
2023/01/29 03:01:39;;;;;;;29.43;27.73;;;19.00;43.70;;;;;;5115023;28;20864;-57
2023/01/29 03:04:09;;;;;;;28.97;27.37;;;19.00;43.60;;;;;;5115094;28;20437;-58
2023/01/29 03:06:41;;;;;;;28.70;27.20;;;19.00;43.70;;;;;;5115050;28;20468;-57
2023/01/29 03:09:15;;;;;;;29.87;28.33;;;19.00;43.70;;;;;;5112793;28;20945;-55
2023/01/29 03:11:46;;;;;;;28.73;27.33;;;18.90;43.60;;;;;;5074320;28;20445;-57
2023/01/29 03:14:18;;;;;;;28.30;26.80;;;18.90;43.60;;;;;;5074092;28;20457;-56
2023/01/29 03:16:49;;;;;;;28.90;27.50;;;18.90;43.70;;;;;;5073950;28;20486;-58
2023/01/29 03:19:20;;;;;;;29.47;28.07;;;18.90;43.60;;;;;;5073997;28;20933;-53
2023/01/29 03:21:54;;;;;;;29.83;28.13;;;18.90;43.60;;;;;;5083963;28;20794;-56
2023/01/29 03:32:50;;;;;;;29.20;27.60;;;18.80;44.10;;;;;;5073986;28;20422;-56
2023/01/29 03:35:32;;;;;;;28.40;27.10;;;18.80;43.60;;;;;;5102636;28;20519;-53
2023/01/29 03:38:00;;;;;;;28.90;27.47;;;18.80;43.60;;;;;;5114241;28;20515;-55
2023/01/29 03:40:29;;;;;;;29.10;27.43;;;18.70;43.50;;;;;;5109542;28;20446;-54
2023/01/29 03:43:05;;;;;;;29.50;28.03;;;18.70;43.60;;;;;;5073606;28;20447;-53
2023/01/29 03:45:41;;;;;;;29.10;27.50;;;18.70;43.60;;;;;;5073670;28;20439;-57
2023/01/29 03:48:16;;;;;;;29.33;27.83;;;18.70;43.50;;;;;;5112487;28;20563;-56
2023/01/29 03:50:54;;;;;;;29.40;27.80;;;18.70;43.50;;;;;;5114023;28;20444;-54
2023/01/29 03:53:25;;;;;;;29.77;28.10;;;18.60;43.50;;;;;;5114076;28;20437;-53
2023/01/29 03:56:00;;;;;;;29.30;27.80;;;18.60;43.50;;;;;;5084977;28;20493;-56
2023/01/29 03:58:36;;;;;;;29.13;27.57;;;18.60;43.50;;;;;;5073371;28;20472;-53
2023/01/29 04:01:10;;;;;;;29.63;28.03;;;18.60;43.60;;;;;;5073084;28;20435;-53
2023/01/29 04:03:40;;;;;;;28.67;27.27;;;18.60;43.60;;;;;;5073215;28;20445;-54
2023/01/29 04:06:11;;;;;;;28.70;27.27;;;18.60;43.60;;;;;;5105429;28;20441;-55
2023/01/29 04:08:46;;;;;;;29.67;28.07;;;18.60;43.60;;;;;;5113780;28;20441;-54
2023/01/29 04:11:17;;;;;;;29.20;27.53;;;18.60;43.60;;;;;;5113739;28;20448;-53
2023/01/29 04:13:45;;;;;;;29.87;28.27;;;18.50;43.60;;;;;;5113722;28;20448;-53
2023/01/29 04:16:17;;;;;;;27.30;26.00;;;18.50;43.60;;;;;;5113340;28;20515;-54
2023/01/29 04:18:45;;;;;;;30.80;29.10;;;18.50;43.60;;;;;;5076105;28;20451;-53
2023/01/29 04:21:13;;;;;;;28.80;27.23;;;18.50;43.70;;;;;;5072825;28;20448;-57
2023/01/29 04:23:40;;;;;;;28.67;27.13;;;18.50;43.70;;;;;;5072755;28;20439;-53
2023/01/29 04:26:24;;;;;;;30.30;28.67;;;18.50;43.70;;;;;;5074878;28;20542;-50
2023/01/29 04:28:59;;;;;;;30.70;29.10;;;18.50;43.80;;;;;;5090753;28;20868;-51
2023/01/29 04:31:34;;;;;;;30.07;28.40;;;18.40;44.80;;;;;;5073727;28;20771;-55
2023/01/29 04:34:13;;;;;;;29.70;28.20;;;18.50;44.50;;;;;;5073008;28;20456;-57
2023/01/29 04:36:54;;;;;;;30.30;28.70;;;18.60;44.40;;;;;;5073012;28;20479;-54
2023/01/29 04:39:31;;;;;;;30.07;28.57;;;18.60;44.50;;;;;;5100678;28;20477;-57
2023/01/29 04:42:06;;;;;;;29.77;28.30;;;18.70;45.00;;;;;;5114607;28;20444;-54
2023/01/29 04:44:39;;;;;;;28.57;27.17;;;18.70;45.70;;;;;;5114974;28;20445;-53
2023/01/29 04:47:19;;;;;;;30.70;28.97;;;18.70;45.30;;;;;;5114513;28;20518;-51
2023/01/29 04:49:53;;;;;;;29.00;27.57;;;18.80;45.50;;;;;;5109691;28;20487;-52
2023/01/29 04:52:32;;;;;;;29.73;28.23;;;18.80;45.50;;;;;;5081578;28;20446;-50
2023/01/29 04:55:08;;;;;;;28.93;27.43;;;18.80;45.50;;;;;;5091751;28;20548;-53
2023/01/29 04:57:41;;;;;;;28.80;27.30;;;18.90;45.50;;;;;;5091070;28;20898;-51
2023/01/29 05:00:13;;;;;;;29.57;28.00;;;18.90;45.60;;;;;;5074533;28;20450;-53
2023/01/29 05:02:43;;;;;;;29.07;27.60;;;18.90;45.60;;;;;;5097271;28;20447;-51
2023/01/29 05:05:12;;;;;;;28.40;27.00;;;18.90;45.60;;;;;;5072101;28;20806;-51
2023/01/29 05:07:40;;;;;;;29.07;27.57;;;18.90;45.50;;;;;;5082507;28;20451;-51
2023/01/29 05:10:11;;;;;;;28.60;27.17;;;19.00;45.60;;;;;;5092101;28;20442;-52
2023/01/29 05:12:39;;;;;;;29.10;27.60;;;19.00;45.60;;;;;;5092199;28;20449;-51
2023/01/29 05:15:12;;;;;;;29.93;28.37;;;19.00;45.60;;;;;;5092143;28;20943;-51
2023/01/29 05:17:39;;;;;;;30.30;28.87;;;19.00;45.50;;;;;;5092383;28;20489;-51
2023/01/29 05:20:08;;;;;;;29.63;28.13;;;19.00;45.50;;;;;;5091715;28;20438;-52
2023/01/29 05:22:39;;;;;;;29.70;28.23;;;19.10;45.50;;;;;;5092078;28;20441;-52
2023/01/29 05:25:21;;;;;;;29.67;28.07;;;19.10;45.40;;;;;;5092062;28;20530;-53
2023/01/29 05:28:05;;;;;;;29.00;27.60;;;19.10;45.40;;;;;;5092056;28;20536;-52
2023/01/29 05:30:34;;;;;;;31.43;29.63;;;19.10;45.40;;;;;;5091816;28;20820;-51
2023/01/29 05:33:01;;;;;;;31.50;29.90;;;19.20;45.40;;;;;;5091859;28;20452;-50
2023/01/29 05:35:30;;;;;;;30.70;29.27;;;19.20;45.30;;;;;;5091727;28;20927;-50
2023/01/29 05:37:57;;;;;;;29.97;28.37;;;19.20;45.30;;;;;;5090944;28;20557;-52
2023/01/29 05:40:25;;;;;;;29.77;28.37;;;19.20;45.30;;;;;;5091641;28;20446;-52
2023/01/29 05:42:51;;;;;;;30.37;28.87;;;19.20;45.30;;;;;;5092172;28;20924;-52
2023/01/29 05:45:19;;;;;;;31.57;29.90;;;19.20;45.20;;;;;;5093697;28;20881;-52
2023/01/29 05:47:46;;;;;;;30.07;28.67;;;19.30;45.20;;;;;;5092514;28;20824;-51
2023/01/29 05:50:13;;;;;;;31.00;29.50;;;19.30;45.20;;;;;;5088685;28;20452;-51
2023/01/29 05:52:42;;;;;;;31.20;29.40;;;19.30;45.10;;;;;;5091848;28;20438;-52
2023/01/29 05:55:10;;;;;;;31.40;29.80;;;19.30;45.60;;;;;;5091854;28;20525;-54
2023/01/29 05:57:37;;;;;;;30.90;29.40;;;19.30;45.00;;;;;;5091756;28;20489;-53
2023/01/29 06:00:05;;;;;;;30.33;28.87;;;19.40;45.00;;;;;;5091901;28;20935;-51
2023/01/29 06:02:32;;;;;;;31.47;29.87;;;19.30;44.90;;;;;;5093007;28;20445;-51
2023/01/29 06:04:59;;;;;;;29.57;28.07;;;19.40;45.00;;;;;;5091842;28;20442;-50
2023/01/29 06:07:26;;;;;;;30.30;28.80;;;19.40;45.00;;;;;;5106042;28;20493;-51
2023/01/29 06:09:54;;;;;;;30.40;28.90;;;19.40;44.90;;;;;;5084509;28;20539;-51
2023/01/29 06:12:21;;;;;;;28.93;27.40;;;19.40;44.80;;;;;;5109322;28;20528;-56
2023/01/29 06:14:48;;;;;;;29.63;28.07;;;19.50;44.80;;;;;;5085329;28;20472;-50
2023/01/29 06:17:14;;;;;;;31.10;29.60;;;19.40;44.70;;;;;;5090406;28;20479;-55
2023/01/29 06:19:41;;;;;;;30.73;28.53;;;19.50;44.80;;;;;;5104491;28;20880;-55
2023/01/29 06:22:08;;;;;;;29.33;27.90;;;19.50;44.70;;;;;;5071315;28;20451;-56
2023/01/29 06:24:35;;;;;;;30.37;28.77;;;19.50;44.70;;;;;;5103996;28;20952;-54
2023/01/29 06:27:03;;;;;;;30.73;29.23;;;19.50;44.70;;;;;;5071156;28;20455;-56
2023/01/29 06:29:30;;;;;;;30.73;29.17;;;19.50;44.70;;;;;;5104300;28;20849;-55
2023/01/29 06:31:57;;;;;;;29.97;28.37;;;19.50;44.60;;;;;;5098916;28;20524;-53
2023/01/29 06:34:24;;;;;;;30.27;28.67;;;19.50;44.60;;;;;;5102068;28;20815;-56
2023/01/29 06:36:50;;;;;;;29.63;28.13;;;19.50;44.60;;;;;;5071053;28;20565;-56
2023/01/29 06:39:17;;;;;;;28.93;27.57;;;19.50;44.60;;;;;;5087282;28;20445;-55
2023/01/29 06:41:45;;;;;;;29.07;27.70;;;19.60;44.60;;;;;;5087489;28;20550;-52
2023/01/29 06:44:13;;;;;;;29.53;28.03;;;19.60;44.60;;;;;;5075032;28;20452;-55
2023/01/29 06:46:40;;;;;;;28.97;27.57;;;19.60;44.60;;;;;;5078807;28;20455;-55
2023/01/29 06:49:07;;;;;;;29.60;28.10;;;19.60;44.50;;;;;;5111226;28;20528;-54
2023/01/29 06:51:33;;;;;;;29.13;27.73;;;19.60;44.50;;;;;;5077090;28;20439;-56
2023/01/29 06:54:00;;;;;;;29.43;28.00;;;19.60;44.50;;;;;;5075244;28;20529;-55
2023/01/29 06:56:27;;;;;;;28.50;27.20;;;19.60;44.40;;;;;;5081747;28;21010;-55
2023/01/29 06:58:54;;;;;;;29.20;27.80;;;19.60;44.40;;;;;;5098134;28;20528;-53
2023/01/29 07:01:22;;;;;;;31.23;29.70;;;19.60;44.40;;;;;;5074374;28;20526;-52
2023/01/29 07:03:49;;;;;;;30.00;28.50;;;19.60;44.30;;;;;;5107893;28;20880;-56
2023/01/29 07:06:16;;;;;;;31.13;29.53;;;19.60;44.30;;;;;;5078574;28;20447;-53
2023/01/29 07:08:43;;;;;;;29.83;28.43;;;19.60;44.30;;;;;;5108692;28;20466;-55
2023/01/29 07:11:10;;;;;;;30.40;28.90;;;19.60;44.30;;;;;;5087288;28;20445;-53
2023/01/29 07:13:37;;;;;;;29.90;28.53;;;19.60;44.30;;;;;;5104115;28;20446;-54
2023/01/29 07:16:05;;;;;;;29.70;28.30;;;19.70;44.30;;;;;;5091647;28;20529;-56
2023/01/29 07:18:33;;;;;;;30.33;28.93;;;19.70;44.30;;;;;;5088945;28;20467;-56
2023/01/29 07:21:04;;;;;;;30.40;29.00;;;19.70;44.30;;;;;;5106491;28;20437;-52
2023/01/29 07:23:31;;;;;;;30.63;29.03;;;19.70;44.30;;;;;;5094395;28;20442;-56
2023/01/29 07:26:01;;;;;;;31.87;30.27;;;19.70;44.30;;;;;;5110243;28;20532;-53
2023/01/29 07:28:28;;;;;;;31.27;29.70;;;19.70;44.20;;;;;;5075359;28;20462;-59
2023/01/29 07:30:56;;;;;;;28.70;27.30;;;19.70;44.20;;;;;;5077667;28;20454;-59
2023/01/29 07:33:24;;;;;;;28.60;27.20;;;19.80;44.30;;;;;;5108935;28;20438;-60
2023/01/29 07:35:52;;;;;;;28.30;26.90;;;19.90;44.40;;;;;;5084325;28;20443;-60
2023/01/29 07:38:19;;;;;;;29.10;27.80;;;20.10;44.60;;;;;;5108148;28;20503;-59
2023/01/29 07:40:46;;;;;;;29.80;28.40;;;20.20;44.50;;;;;;5087458;28;20881;-55
2023/01/29 07:43:13;;;;;;;29.77;28.47;;;20.30;44.30;;;;;;5090259;28;20448;-57
2023/01/29 07:45:40;;;;;;;28.57;27.27;;;20.50;44.40;;;;;;5104473;28;20528;-56
2023/01/29 07:48:10;;;;;;;29.73;28.33;;;20.60;44.30;;;;;;5086588;28;20813;-57
2023/01/29 07:50:37;;;;;;;29.77;28.37;;;20.60;44.10;;;;;;5077677;28;20455;-56
2023/01/29 07:53:05;;;;;;;28.33;26.83;;;20.60;44.00;;;;;;5107829;28;20822;-56
2023/01/29 07:55:33;;;;;;;29.30;28.00;;;20.70;44.00;;;;;;5077953;28;20447;-56
2023/01/29 07:58:02;;;;;;;29.50;28.10;;;20.70;43.90;;;;;;5099698;28;20489;-56
2023/01/29 08:00:29;;;;;;;29.50;28.20;;;20.70;44.30;;;;;;5098408;28;20452;-57
2023/01/29 08:03:03;;;;;;;30.20;28.80;;;20.80;43.80;;;;;;5114551;28;20448;-55
2023/01/29 08:05:30;;;;;;;29.60;28.20;;;20.80;43.80;;;;;;5111705;28;20514;-52
2023/01/29 08:07:56;;;;;;;29.57;28.07;;;20.80;43.80;;;;;;5113707;28;20536;-59
2023/01/29 08:10:25;;;;;;;29.10;27.73;;;20.90;43.80;;;;;;5076785;28;20482;-61
2023/01/29 08:12:55;;;;;;;30.23;28.80;;;20.90;43.70;;;;;;5074467;28;20465;-55
2023/01/29 08:15:22;;;;;;;30.70;29.20;;;21.00;43.70;;;;;;5114409;28;20445;-56
2023/01/29 08:17:49;;;;;;;29.60;28.17;;;20.90;43.50;;;;;;5114919;28;20542;-53
2023/01/29 08:20:16;;;;;;;29.23;27.83;;;21.00;44.10;;;;;;5113966;28;20974;-55
2023/01/29 08:22:43;;;;;;;28.57;27.17;;;21.00;43.50;;;;;;5114876;28;20455;-52
2023/01/29 08:25:10;;;;;;;29.50;28.10;;;21.00;43.40;;;;;;5090121;28;20528;-58
2023/01/29 08:27:39;;;;;;;28.80;27.30;;;21.10;43.70;;;;;;5092637;28;20463;-57
2023/01/29 08:30:07;;;;;;;29.43;28.03;;;21.00;43.70;;;;;;5077581;28;20483;-54
2023/01/29 08:32:33;;;;;;;29.20;27.80;;;21.00;43.30;;;;;;5074008;28;20966;-53
2023/01/29 08:35:01;;;;;;;29.50;28.03;;;21.00;43.00;;;;;;5075316;28;20816;-54
2023/01/29 08:37:28;;;;;;;29.90;28.40;;;21.00;42.90;;;;;;5072767;28;20487;-51
2023/01/29 08:39:55;;;;;;;29.67;28.20;;;21.10;43.10;;;;;;5080775;28;20982;-49
2023/01/29 08:42:22;;;;;;;30.80;29.30;;;21.10;42.90;;;;;;5103770;28;20526;-50
2023/01/29 08:44:50;;;;;;;29.97;28.47;;;21.20;43.00;;;;;;5073166;28;21017;-50
2023/01/29 08:47:18;;;;;;;30.43;29.00;;;21.20;42.90;;;;;;5074966;28;20463;-50
2023/01/29 08:49:46;;;;;;;30.23;28.73;;;21.20;42.80;;;;;;5081668;28;20519;-52
2023/01/29 08:52:13;;;;;;;28.00;26.80;;;21.30;42.90;;;;;;5087864;28;20798;-53
2023/01/29 08:54:40;;;;;;;29.57;28.17;;;21.40;42.90;;;;;;5083441;28;20539;-56
2023/01/29 08:57:07;;;;;;;30.17;28.67;;;21.40;42.80;;;;;;5098050;28;20570;-56
2023/01/29 08:59:33;;;;;;;30.67;29.20;;;21.50;42.90;;;;;;5072051;28;20505;-56
2023/01/29 09:02:02;;;;;;;29.13;27.73;;;21.50;42.80;;;;;;5097390;28;20532;-52
2023/01/29 09:04:28;;;;;;;28.63;27.33;;;21.50;42.70;;;;;;5090896;28;20538;-49
2023/01/29 09:06:55;;;;;;;29.70;28.20;;;21.50;42.70;;;;;;5107504;28;20475;-51
2023/01/29 09:09:22;;;;;;;29.00;27.63;;;21.50;42.80;;;;;;5078380;28;20506;-53
2023/01/29 09:11:49;;;;;;;29.20;27.70;;;21.50;42.80;;;;;;5100203;28;20963;-53
2023/01/29 09:14:15;;;;;;;29.37;27.97;;;21.40;42.80;;;;;;5080277;28;20528;-51
2023/01/29 09:16:42;;;;;;;29.70;28.30;;;21.40;42.90;;;;;;5089786;28;20558;-54
2023/01/29 09:19:11;;;;;;;28.10;26.70;;;21.40;42.90;;;;;;5112516;28;20532;-53
2023/01/29 09:21:37;;;;;;;29.80;28.30;;;21.40;43.40;;;;;;5089543;28;20541;-56
2023/01/29 09:24:05;;;;;;;29.27;27.87;;;21.40;44.50;;;;;;5112239;28;20446;-56
2023/01/29 09:26:32;;;;;;;29.30;27.80;;;21.40;43.30;;;;;;5072665;28;20463;-55
2023/01/29 09:28:59;;;;;;;29.87;28.40;;;21.50;43.10;;;;;;5074379;28;20542;-57
2023/01/29 09:31:25;;;;;;;28.37;27.07;;;21.70;43.10;;;;;;5080418;28;20439;-58
2023/01/29 09:33:52;;;;;;;29.70;28.30;;;21.90;43.10;;;;;;5071780;28;20443;-57
2023/01/29 09:36:21;;;;;;;28.73;27.33;;;22.00;42.90;;;;;;5080235;28;20538;-60
2023/01/29 09:38:47;;;;;;;28.40;27.10;;;22.20;42.90;;;;;;5073452;28;20539;-57
2023/01/29 09:41:30;;;;;;;28.80;27.40;;;22.30;42.60;;;;;;5106437;28;20481;-52
2023/01/29 09:44:00;;;;;;;28.97;27.37;;;22.40;42.40;;;;;;5097197;28;20451;-53
2023/01/29 09:46:33;;;;;;;28.70;27.30;;;22.50;42.30;;;;;;5096209;28;20450;-56
2023/01/29 09:49:06;;;;;;;27.73;26.43;;;22.60;42.20;;;;;;5088891;28;20449;-57
2023/01/29 09:51:40;;;;;;;28.33;27.03;;;22.60;42.10;;;;;;5103259;28;20514;-57
2023/01/29 09:54:16;;;;;;;27.73;26.43;;;22.70;42.10;;;;;;5108750;28;20459;-56
2023/01/29 09:56:45;;;;;;;28.63;27.13;;;22.80;42.50;;;;;;5087383;28;20483;-55
2023/01/29 09:59:14;;;;;;;28.70;27.40;;;22.90;42.40;;;;;;5114208;28;20501;-51
2023/01/29 10:01:50;;;;;;;28.07;26.77;;;23.00;41.80;;;;;;5086874;28;20793;-51
2023/01/29 10:04:37;;;;;;;28.30;26.83;;;23.00;41.60;;;;;;5075575;28;20443;-53
2023/01/29 10:07:19;;;;;;;27.80;26.40;;;23.10;41.60;;;;;;5101867;28;20461;-53
2023/01/29 10:10:18;;;;;;;26.90;25.80;;;23.20;41.60;;;;;;5097946;28;20449;-54
2023/01/29 10:12:56;;;;;;;27.87;26.67;;;23.20;41.70;;;;;;5088731;28;20490;-57
2023/01/29 10:15:35;;;;;;;29.87;28.57;;;23.20;41.40;;;;;;5090181;28;20433;-51
2023/01/29 10:18:24;;;;;;;28.27;27.03;;;23.20;41.70;;;;;;5087424;28;20953;-53
2023/01/29 10:21:04;;;;;;;27.97;26.57;;;23.20;41.50;;;;;;5090860;28;20812;-55
2023/01/29 10:23:34;;;;;;;28.90;27.60;;;23.20;41.30;;;;;;5091769;28;20447;-60
2023/01/29 10:26:01;;;;;;;28.50;27.20;;;23.20;41.30;;;;;;5093759;28;20449;-52
2023/01/29 10:28:33;;;;;;;27.93;26.63;;;23.20;41.20;;;;;;5095278;28;20458;-49
2023/01/29 10:31:05;;;;;;;28.43;26.90;;;23.10;41.00;;;;;;5095926;28;20452;-51
2023/01/29 10:33:38;;;;;;;28.20;26.90;;;23.20;41.00;;;;;;5097214;28;20457;-52
2023/01/29 10:36:10;;;;;;;28.40;27.20;;;23.20;40.90;;;;;;5094861;28;20469;-55
2023/01/29 10:38:44;;;;;;;27.70;26.40;;;23.20;40.90;;;;;;5095087;28;20465;-54
2023/01/29 10:41:25;;;;;;;28.43;27.07;;;23.20;40.80;;;;;;5096663;28;20453;-52
2023/01/29 10:44:03;;;;;;;27.63;26.10;;;23.20;40.80;;;;;;5095672;28;20461;-51
2023/01/29 10:46:44;;;;;;;27.23;26.03;;;23.20;40.80;;;;;;5099004;28;20467;-52
2023/01/29 10:49:25;;;;;;;25.70;24.60;;;23.10;40.60;;;;;;5095242;28;20441;-50
2023/01/29 10:52:06;;;;;;;26.40;25.20;;;23.10;40.60;;;;;;5094442;28;20438;-55
2023/01/29 10:54:54;;;;;;;28.30;27.00;;;23.10;40.60;;;;;;5095203;28;20433;-52
2023/01/29 10:57:36;;;;;;;26.70;25.50;;;23.00;40.50;;;;;;5093760;28;20465;-55
2023/01/29 11:00:11;;;;;;;26.07;24.97;;;23.00;40.50;;;;;;5094851;28;20439;-52
2023/01/29 11:02:44;;;;;;;27.30;26.10;;;22.90;40.50;;;;;;5097137;28;20446;-52
2023/01/29 11:05:22;;;;;;;26.53;25.33;;;22.90;40.60;;;;;;5094969;28;20871;-53
2023/01/29 11:08:03;;;;;;;26.57;25.37;;;22.80;40.50;;;;;;5095946;28;20469;-53
2023/01/29 11:10:35;;;;;;;27.67;26.47;;;22.70;41.10;;;;;;5092576;28;20450;-54
2023/01/29 11:13:04;;;;;;;27.43;26.13;;;22.70;40.90;;;;;;5095551;28;20819;-57
2023/01/29 11:15:33;;;;;;;27.57;26.27;;;22.60;40.80;;;;;;5095122;28;20465;-51
2023/01/29 11:18:12;;;;;;;26.37;25.10;;;22.60;40.80;;;;;;5100702;22;20482;-55
2023/01/29 11:20:40;;;;;;;26.87;25.67;;;22.60;40.80;;;;;;5094545;28;20446;-51
2023/01/29 11:23:23;;;;;;;27.10;25.90;;;22.70;40.90;;;;;;5094598;28;20815;-51
2023/01/29 11:25:55;;;;;;;27.50;26.30;;;22.60;40.70;;;;;;5092710;28;20442;-52
2023/01/29 11:28:39;;;;;;;27.30;26.03;;;22.70;40.80;;;;;;5092190;28;20461;-53
2023/01/29 11:31:20;;;;;;;27.60;26.20;;;22.70;40.80;;;;;;5092817;28;20472;-52
2023/01/29 11:33:48;;;;;;;29.00;27.60;;;22.70;40.80;;;;;;5091848;28;20525;-55
2023/01/29 11:36:31;;;;;;;27.80;26.53;;;22.70;40.70;;;;;;5092842;28;20438;-51
2023/01/29 11:39:14;;;;;;;27.17;25.97;;;22.70;40.70;;;;;;5093218;28;20466;-57
2023/01/29 11:41:47;;;;;;;26.00;24.80;;;22.80;40.80;;;;;;5092411;28;20443;-52
2023/01/29 11:44:26;;;;;;;25.70;24.60;;;22.90;40.80;;;;;;5092326;28;20439;-56
2023/01/29 11:46:53;;;;;;;26.40;25.13;;;22.90;40.80;;;;;;5092367;28;20462;-50
2023/01/29 11:49:32;;;;;;;27.00;25.70;;;22.90;40.80;;;;;;5094461;28;20445;-54
2023/01/29 11:52:02;;;;;;;28.63;26.80;;;22.90;40.80;;;;;;5093897;28;20503;-53
2023/01/29 11:54:34;;;;;;;31.77;30.17;;;22.90;40.90;;;;;;5093959;28;20541;-51
2023/01/29 11:57:03;;;;;;;30.20;28.70;;;22.80;39.70;;;;;;5093609;28;20496;-50
2023/01/29 11:59:41;;;;;;;30.20;28.70;;;22.70;39.20;;;;;;5090226;28;20856;-59
2023/01/29 12:02:29;;;;;;;27.40;26.10;;;22.70;40.10;;;;;;5090351;28;20485;-59
2023/01/29 12:04:58;;;;;;;27.70;26.40;;;22.80;40.30;;;;;;5090687;28;20453;-56
2023/01/29 12:07:25;;;;;;;27.67;26.47;;;22.90;40.50;;;;;;5091236;28;20450;-55
2023/01/29 12:09:55;;;;;;;28.60;27.37;;;22.90;40.40;;;;;;5091233;28;20872;-54
2023/01/29 12:12:32;;;;;;;27.03;25.93;;;22.90;40.30;;;;;;5091356;28;20806;-51
2023/01/29 12:15:15;;;;;;;28.37;27.17;;;23.00;40.60;;;;;;5091337;28;20452;-55
2023/01/29 12:17:46;;;;;;;28.30;27.10;;;23.00;40.50;;;;;;5091426;28;20476;-50
2023/01/29 12:20:18;;;;;;;27.80;26.67;;;23.10;40.40;;;;;;5091155;28;20451;-52
2023/01/29 12:22:50;;;;;;;27.77;26.57;;;23.10;40.40;;;;;;5090309;28;20447;-55
2023/01/29 12:25:23;;;;;;;29.67;28.37;;;23.10;40.30;;;;;;5090051;28;20951;-58
2023/01/29 12:27:56;;;;;;;27.90;26.80;;;23.10;40.40;;;;;;5091490;28;20458;-58
2023/01/29 12:30:29;;;;;;;29.73;28.37;;;23.20;40.40;;;;;;5090967;28;20533;-59
2023/01/29 12:33:02;;;;;;;29.10;27.70;;;23.20;40.40;;;;;;5091453;28;20441;-55
2023/01/29 12:35:31;;;;;;;26.00;24.90;;;23.20;40.40;;;;;;5086075;28;20440;-56
2023/01/29 12:38:03;;;;;;;29.30;27.90;;;23.20;40.50;;;;;;5092884;28;20220;-56
2023/01/29 12:40:38;;;;;;;27.93;26.73;;;23.20;40.40;;;;;;5092816;28;20804;-51
2023/01/29 12:43:14;;;;;;;30.10;28.70;;;23.20;40.10;;;;;;5093213;28;20856;-56
2023/01/29 12:45:43;;;;;;;28.67;27.37;;;23.10;39.90;;;;;;5092752;28;20807;-57
2023/01/29 12:48:14;;;;;;;27.73;26.47;;;23.00;39.90;;;;;;5092852;28;20473;-51
2023/01/29 12:50:41;;;;;;;29.17;27.87;;;23.00;40.10;;;;;;5092529;28;20450;-51
2023/01/29 12:53:23;;;;;;;28.93;27.73;;;22.90;40.10;;;;;;5092948;28;20962;-52
2023/01/29 12:55:54;;;;;;;28.83;27.53;;;22.90;40.20;;;;;;5093001;28;20450;-52
2023/01/29 12:58:27;;;;;;;28.23;26.83;;;22.90;40.30;;;;;;5092672;28;20577;-61
2023/01/29 13:00:57;;;;;;;26.60;25.33;;;22.90;40.40;;;;;;5092399;28;20440;-59
2023/01/29 13:03:29;;;;;;;29.63;28.03;;;22.90;40.70;;;;;;5092984;28;20199;-52
2023/01/29 13:05:59;;;;;;;29.37;28.10;;;22.90;40.70;;;;;;5092875;28;20468;-57
2023/01/29 13:08:35;;;;;;;28.00;26.70;;;23.00;40.90;;;;;;5092570;28;20520;-55
2023/01/29 13:11:08;;;;;;;27.30;26.10;;;23.00;41.20;;;;;;5091996;28;20477;-57
2023/01/29 13:13:51;;;;;;;29.50;28.10;;;22.90;40.70;;;;;;5091354;28;20200;-51